KBYL

Williamsburg-Whitley County Airport

Williamsburg, Kentucky, USA
METAR KBYL 230315Z AUTO 00000KT M1/4SM OVC001 18/18 A3007 RMK AO1
Observed Flight Rules
May-23 @ 03:15 UTC (8 minutes ago) Instrument Flight Rules
Visibility Clouds
1/4 miles
  • Overcast at 100' AGL
Temperatures Readings
Current 18°C / 64°F
Dewpoint 18°C / 64°F
Humidity 100%
Altimeter 30.07" Hg
Pressure 1018 hPa
Elevation 359
METAR KBYL 230315Z AUTO 00000KT M1/4SM OVC001 18/18 A3007 RMK AO1
Observed Flight Rules
May-23 @ 03:15 UTC
(8 minutes ago)
LIFR
Clouds
  • Overcast at 100' AGL
Temperature Dewpoint
18°C / 64°F 18°C / 64°F
Humidity Altimeter Pressure
100% 30.07" Hg 1018 hPa